sensor_id;sensor_type;location;lat;lon;timestamp;pressure;altitude;pressure_sealevel;temperature;humidity
12868;BME280;33517;49.866;8.320;2023-04-21T00:02:41;100229.59;;;6.66;94.25
12868;BME280;33517;49.866;8.320;2023-04-21T00:05:33;100230.34;;;6.59;94.14
12868;BME280;33517;49.866;8.320;2023-04-21T00:08:26;100227.19;;;6.55;93.69
12868;BME280;33517;49.866;8.320;2023-04-21T00:11:18;100221.56;;;6.50;93.92
12868;BME280;33517;49.866;8.320;2023-04-21T00:14:10;100222.16;;;6.44;93.68
12868;BME280;33517;49.866;8.320;2023-04-21T00:17:02;100220.94;;;6.38;93.78
12868;BME280;33517;49.866;8.320;2023-04-21T00:19:54;100217.78;;;6.35;93.88
12868;BME280;33517;49.866;8.320;2023-04-21T00:22:45;100216.56;;;6.29;94.05
12868;BME280;33517;49.866;8.320;2023-04-21T00:25:39;100217.66;;;6.27;93.41
12868;BME280;33517;49.866;8.320;2023-04-21T00:28:31;100210.25;;;6.22;93.64
12868;BME280;33517;49.866;8.320;2023-04-21T00:31:22;100202.56;;;6.21;93.77
12868;BME280;33517;49.866;8.320;2023-04-21T00:34:14;100205.59;;;6.16;93.55
12868;BME280;33517;49.866;8.320;2023-04-21T00:37:06;100205.88;;;6.13;92.93
12868;BME280;33517;49.866;8.320;2023-04-21T00:39:58;100207.97;;;6.10;93.57
12868;BME280;33517;49.866;8.320;2023-04-21T00:42:51;100203.84;;;6.07;93.64
12868;BME280;33517;49.866;8.320;2023-04-21T00:45:44;100203.44;;;6.02;93.75
12868;BME280;33517;49.866;8.320;2023-04-21T00:48:36;100200.56;;;5.96;92.77
12868;BME280;33517;49.866;8.320;2023-04-21T00:51:28;100207.31;;;5.89;93.70
12868;BME280;33517;49.866;8.320;2023-04-21T00:54:23;100200.00;;;5.83;93.53
12868;BME280;33517;49.866;8.320;2023-04-21T00:57:16;100203.72;;;5.80;93.30
12868;BME280;33517;49.866;8.320;2023-04-21T01:00:10;100203.84;;;5.79;93.31
12868;BME280;33517;49.866;8.320;2023-04-21T01:03:03;100198.25;;;5.74;93.27
12868;BME280;33517;49.866;8.320;2023-04-21T01:05:56;100195.19;;;5.69;92.96
12868;BME280;33517;49.866;8.320;2023-04-21T01:08:48;100194.81;;;5.63;92.62
12868;BME280;33517;49.866;8.320;2023-04-21T01:11:59;100190.56;;;5.63;92.87
12868;BME280;33517;49.866;8.320;2023-04-21T01:14:51;100201.00;;;5.63;93.58
12868;BME280;33517;49.866;8.320;2023-04-21T01:17:44;100192.88;;;5.66;93.01
12868;BME280;33517;49.866;8.320;2023-04-21T01:20:37;100192.88;;;5.66;92.92
12868;BME280;33517;49.866;8.320;2023-04-21T01:23:30;100198.09;;;5.66;92.64
12868;BME280;33517;49.866;8.320;2023-04-21T01:26:22;100194.13;;;5.61;92.54
12868;BME280;33517;49.866;8.320;2023-04-21T01:29:14;100198.50;;;5.61;92.64
12868;BME280;33517;49.866;8.320;2023-04-21T01:32:08;100194.66;;;5.65;92.86
12868;BME280;33517;49.866;8.320;2023-04-21T01:35:00;100198.78;;;5.68;93.12
12868;BME280;33517;49.866;8.320;2023-04-21T01:37:52;100201.00;;;5.72;92.78
12868;BME280;33517;49.866;8.320;2023-04-21T01:40:47;100195.47;;;5.75;92.89
12868;BME280;33517;49.866;8.320;2023-04-21T01:43:40;100194.78;;;5.83;93.18
12868;BME280;33517;49.866;8.320;2023-04-21T01:46:32;100200.31;;;5.89;93.15
12868;BME280;33517;49.866;8.320;2023-04-21T01:49:23;100197.00;;;5.97;93.03
12868;BME280;33517;49.866;8.320;2023-04-21T01:52:15;100193.53;;;6.06;93.69
12868;BME280;33517;49.866;8.320;2023-04-21T01:55:08;100201.91;;;6.09;93.41
12868;BME280;33517;49.866;8.320;2023-04-21T01:58:01;100197.91;;;6.15;93.38
12868;BME280;33517;49.866;8.320;2023-04-21T02:00:53;100186.31;;;6.27;93.51
12868;BME280;33517;49.866;8.320;2023-04-21T02:03:45;100194.94;;;6.37;93.03
12868;BME280;33517;49.866;8.320;2023-04-21T02:06:37;100192.41;;;6.45;93.51
12868;BME280;33517;49.866;8.320;2023-04-21T02:09:29;100183.06;;;6.52;93.77
12868;BME280;33517;49.866;8.320;2023-04-21T02:12:21;100186.72;;;6.59;92.92
12868;BME280;33517;49.866;8.320;2023-04-21T02:15:14;100195.09;;;6.63;93.43
12868;BME280;33517;49.866;8.320;2023-04-21T02:18:06;100193.47;;;6.62;94.22
12868;BME280;33517;49.866;8.320;2023-04-21T02:20:58;100192.63;;;6.61;94.37
12868;BME280;33517;49.866;8.320;2023-04-21T02:23:50;100197.97;;;6.69;94.12
12868;BME280;33517;49.866;8.320;2023-04-21T02:26:42;100200.13;;;6.74;93.46
12868;BME280;33517;49.866;8.320;2023-04-21T02:29:34;100197.91;;;6.79;93.63
12868;BME280;33517;49.866;8.320;2023-04-21T02:32:27;100195.44;;;6.77;94.43
12868;BME280;33517;49.866;8.320;2023-04-21T02:35:20;100207.38;;;6.80;94.17
12868;BME280;33517;49.866;8.320;2023-04-21T02:38:12;100200.06;;;6.83;93.67
12868;BME280;33517;49.866;8.320;2023-04-21T02:41:04;100199.38;;;6.91;93.66
12868;BME280;33517;49.866;8.320;2023-04-21T02:43:56;100190.91;;;6.97;93.99
12868;BME280;33517;49.866;8.320;2023-04-21T02:46:47;100195.34;;;6.96;93.94
12868;BME280;33517;49.866;8.320;2023-04-21T02:49:41;100207.59;;;6.96;95.26
12868;BME280;33517;49.866;8.320;2023-04-21T02:52:34;100204.13;;;6.95;95.42
12868;BME280;33517;49.866;8.320;2023-04-21T02:55:26;100210.19;;;6.96;95.08
12868;BME280;33517;49.866;8.320;2023-04-21T02:58:18;100212.66;;;6.97;95.61
12868;BME280;33517;49.866;8.320;2023-04-21T03:01:10;100214.03;;;7.01;95.07
12868;BME280;33517;49.866;8.320;2023-04-21T03:04:02;100208.34;;;7.06;95.17
12868;BME280;33517;49.866;8.320;2023-04-21T03:06:55;100201.84;;;7.10;95.30
12868;BME280;33517;49.866;8.320;2023-04-21T03:09:47;100212.03;;;7.13;94.60
12868;BME280;33517;49.866;8.320;2023-04-21T03:12:39;100217.25;;;7.13;95.34
12868;BME280;33517;49.866;8.320;2023-04-21T03:15:31;100216.50;;;7.20;94.79
12868;BME280;33517;49.866;8.320;2023-04-21T03:18:23;100206.72;;;7.22;95.48
12868;BME280;33517;49.866;8.320;2023-04-21T03:21:14;100213.00;;;7.29;95.17
12868;BME280;33517;49.866;8.320;2023-04-21T03:24:08;100212.72;;;7.32;95.37
12868;BME280;33517;49.866;8.320;2023-04-21T03:27:00;100212.72;;;7.32;96.17
12868;BME280;33517;49.866;8.320;2023-04-21T03:29:52;100216.38;;;7.39;95.52
12868;BME280;33517;49.866;8.320;2023-04-21T03:32:44;100206.56;;;7.41;95.52
12868;BME280;33517;49.866;8.320;2023-04-21T03:35:36;100210.53;;;7.45;95.40
12868;BME280;33517;49.866;8.320;2023-04-21T03:38:27;100205.81;;;7.49;96.67
12868;BME280;33517;49.866;8.320;2023-04-21T03:41:21;100208.66;;;7.56;96.66
12868;BME280;33517;49.866;8.320;2023-04-21T03:44:13;100196.78;;;7.61;95.72
12868;BME280;33517;49.866;8.320;2023-04-21T03:47:04;100199.38;;;7.61;95.24
12868;BME280;33517;49.866;8.320;2023-04-21T03:49:56;100204.91;;;7.58;96.21
12868;BME280;33517;49.866;8.320;2023-04-21T03:52:48;100209.88;;;7.61;95.42
12868;BME280;33517;49.866;8.320;2023-04-21T03:55:40;100200.50;;;7.59;96.65
12868;BME280;33517;49.866;8.320;2023-04-21T03:58:34;100197.59;;;7.62;97.01
12868;BME280;33517;49.866;8.320;2023-04-21T04:01:26;100198.13;;;7.65;96.67
12868;BME280;33517;49.866;8.320;2023-04-21T04:04:18;100193.22;;;7.70;96.72
12868;BME280;33517;49.866;8.320;2023-04-21T04:07:10;100193.59;;;7.75;95.59
12868;BME280;33517;49.866;8.320;2023-04-21T04:10:01;100193.06;;;7.72;96.49
12868;BME280;33517;49.866;8.320;2023-04-21T04:12:54;100188.34;;;7.75;96.84
12868;BME280;33517;49.866;8.320;2023-04-21T04:15:47;100183.44;;;7.72;97.04
12868;BME280;33517;49.866;8.320;2023-04-21T04:18:39;100181.16;;;7.77;95.81
12868;BME280;33517;49.866;8.320;2023-04-21T04:21:31;100187.69;;;7.73;95.86
12868;BME280;33517;49.866;8.320;2023-04-21T04:24:23;100183.75;;;7.69;96.58
12868;BME280;33517;49.866;8.320;2023-04-21T04:27:16;100181.88;;;7.62;97.97
12868;BME280;33517;49.866;8.320;2023-04-21T04:30:10;100196.84;;;7.52;98.21
12868;BME280;33517;49.866;8.320;2023-04-21T04:33:04;100198.47;;;7.53;98.45
12868;BME280;33517;49.866;8.320;2023-04-21T04:35:55;100198.03;;;7.57;98.42
12868;BME280;33517;49.866;8.320;2023-04-21T04:38:47;100190.69;;;7.61;98.24
12868;BME280;33517;49.866;8.320;2023-04-21T04:41:39;100197.06;;;7.58;97.78
12868;BME280;33517;49.866;8.320;2023-04-21T04:44:31;100197.81;;;7.51;97.28
12868;BME280;33517;49.866;8.320;2023-04-21T04:47:23;100192.13;;;7.55;97.57
12868;BME280;33517;49.866;8.320;2023-04-21T04:50:17;100192.13;;;7.55;97.86
12868;BME280;33517;49.866;8.320;2023-04-21T04:53:08;100189.44;;;7.47;97.12
12868;BME280;33517;49.866;8.320;2023-04-21T04:56:00;100197.72;;;7.42;98.69
12868;BME280;33517;49.866;8.320;2023-04-21T04:58:52;100203.97;;;7.41;97.79
12868;BME280;33517;49.866;8.320;2023-04-21T05:01:44;100213.50;;;7.33;98.58
12868;BME280;33517;49.866;8.320;2023-04-21T05:04:36;100217.28;;;7.30;97.38
12868;BME280;33517;49.866;8.320;2023-04-21T05:07:29;100208.41;;;7.14;98.57
12868;BME280;33517;49.866;8.320;2023-04-21T05:10:22;100215.75;;;7.10;99.08
12868;BME280;33517;49.866;8.320;2023-04-21T05:13:15;100198.56;;;7.08;98.49
12868;BME280;33517;49.866;8.320;2023-04-21T05:16:07;100206.69;;;7.05;99.09
12868;BME280;33517;49.866;8.320;2023-04-21T05:19:01;100202.66;;;7.10;98.28
12868;BME280;33517;49.866;8.320;2023-04-21T05:21:57;100199.09;;;7.11;98.74
12868;BME280;33517;49.866;8.320;2023-04-21T05:24:51;100206.41;;;7.25;99.04
12868;BME280;33517;49.866;8.320;2023-04-21T05:27:43;100206.81;;;7.30;99.03
12868;BME280;33517;49.866;8.320;2023-04-21T05:30:35;100218.16;;;7.39;98.40
12868;BME280;33517;49.866;8.320;2023-04-21T05:33:27;100221.97;;;7.44;98.22
12868;BME280;33517;49.866;8.320;2023-04-21T05:36:21;100230.50;;;7.46;97.83
12868;BME280;33517;49.866;8.320;2023-04-21T05:39:14;100216.59;;;7.46;98.60
12868;BME280;33517;49.866;8.320;2023-04-21T05:42:09;100217.19;;;7.58;97.26
12868;BME280;33517;49.866;8.320;2023-04-21T05:45:01;100211.34;;;7.64;97.71
12868;BME280;33517;49.866;8.320;2023-04-21T05:47:53;100214.50;;;7.67;96.88
12868;BME280;33517;49.866;8.320;2023-04-21T05:50:45;100197.72;;;7.78;97.52
12868;BME280;33517;49.866;8.320;2023-04-21T05:53:37;100197.19;;;7.74;97.87
12868;BME280;33517;49.866;8.320;2023-04-21T05:56:29;100204.72;;;7.95;97.51
12868;BME280;33517;49.866;8.320;2023-04-21T05:59:22;100211.34;;;8.07;97.26
12868;BME280;33517;49.866;8.320;2023-04-21T06:02:16;100213.97;;;8.24;95.96
12868;BME280;33517;49.866;8.320;2023-04-21T06:05:07;100207.94;;;8.32;96.34
12868;BME280;33517;49.866;8.320;2023-04-21T06:07:59;100196.34;;;8.43;96.58
12868;BME280;33517;49.866;8.320;2023-04-21T06:10:51;100206.56;;;8.54;95.94
12868;BME280;33517;49.866;8.320;2023-04-21T06:13:43;100210.22;;;8.61;96.48
12868;BME280;33517;49.866;8.320;2023-04-21T06:16:36;100208.47;;;8.77;95.24
12868;BME280;33517;49.866;8.320;2023-04-21T06:19:28;100210.28;;;8.85;95.43
12868;BME280;33517;49.866;8.320;2023-04-21T06:22:20;100210.97;;;8.87;94.15
12868;BME280;33517;49.866;8.320;2023-04-21T06:25:12;100234.66;;;8.61;95.98
12868;BME280;33517;49.866;8.320;2023-04-21T06:28:03;100224.78;;;8.63;96.79
12868;BME280;33517;49.866;8.320;2023-04-21T06:30:55;100224.16;;;8.61;96.46
12868;BME280;33517;49.866;8.320;2023-04-21T06:33:48;100236.63;;;8.67;96.18
12868;BME280;33517;49.866;8.320;2023-04-21T06:36:40;100235.78;;;8.59;95.08
12868;BME280;33517;49.866;8.320;2023-04-21T06:39:32;100234.91;;;8.50;96.17
12868;BME280;33517;49.866;8.320;2023-04-21T06:42:24;100233.31;;;8.57;95.74
12868;BME280;33517;49.866;8.320;2023-04-21T06:45:16;100238.72;;;8.64;95.95
12868;BME280;33517;49.866;8.320;2023-04-21T06:48:07;100230.78;;;8.81;95.00
12868;BME280;33517;49.866;8.320;2023-04-21T06:51:01;100226.28;;;8.99;95.19
12868;BME280;33517;49.866;8.320;2023-04-21T06:53:52;100232.91;;;9.27;93.84
12868;BME280;33517;49.866;8.320;2023-04-21T06:56:44;100225.19;;;9.42;94.12
12868;BME280;33517;49.866;8.320;2023-04-21T06:59:36;100224.41;;;9.66;93.40
12868;BME280;33517;49.866;8.320;2023-04-21T07:02:28;100228.84;;;9.73;91.42
12868;BME280;33517;49.866;8.320;2023-04-21T07:05:20;100230.00;;;9.79;92.58
12868;BME280;33517;49.866;8.320;2023-04-21T07:08:13;100238.03;;;9.93;91.69
12868;BME280;33517;49.866;8.320;2023-04-21T07:11:05;100233.63;;;9.78;91.23
12868;BME280;33517;49.866;8.320;2023-04-21T07:13:56;100223.91;;;9.86;92.62
12868;BME280;33517;49.866;8.320;2023-04-21T07:16:51;100223.59;;;10.13;91.30
12868;BME280;33517;49.866;8.320;2023-04-21T07:19:44;100224.53;;;10.29;91.55
12868;BME280;33517;49.866;8.320;2023-04-21T07:22:36;100225.13;;;10.55;90.67
12868;BME280;33517;49.866;8.320;2023-04-21T07:25:29;100227.94;;;10.53;89.91
12868;BME280;33517;49.866;8.320;2023-04-21T07:28:21;100236.84;;;10.36;89.85
12868;BME280;33517;49.866;8.320;2023-04-21T07:31:13;100230.28;;;10.32;90.87
12868;BME280;33517;49.866;8.320;2023-04-21T07:34:05;100231.94;;;10.33;90.69
12868;BME280;33517;49.866;8.320;2023-04-21T07:36:56;100228.66;;;10.23;90.59
12868;BME280;33517;49.866;8.320;2023-04-21T07:39:48;100231.28;;;10.07;90.44
12868;BME280;33517;49.866;8.320;2023-04-21T07:42:42;100237.06;;;9.94;90.76
12868;BME280;33517;49.866;8.320;2023-04-21T07:45:33;100231.47;;;9.81;91.38
12868;BME280;33517;49.866;8.320;2023-04-21T07:48:25;100229.16;;;9.86;91.53
12868;BME280;33517;49.866;8.320;2023-04-21T07:51:17;100225.22;;;9.82;91.13
12868;BME280;33517;49.866;8.320;2023-04-21T07:54:09;100217.16;;;9.92;91.45
12868;BME280;33517;49.866;8.320;2023-04-21T07:57:01;100214.84;;;10.05;90.77
12868;BME280;33517;49.866;8.320;2023-04-21T07:59:55;100212.25;;;10.13;90.37
12868;BME280;33517;49.866;8.320;2023-04-21T08:02:46;100205.00;;;10.23;89.93
12868;BME280;33517;49.866;8.320;2023-04-21T08:05:38;100212.91;;;10.15;89.82
12868;BME280;33517;49.866;8.320;2023-04-21T08:08:30;100213.53;;;10.33;90.73
12868;BME280;33517;49.866;8.320;2023-04-21T08:11:22;100221.69;;;10.54;90.47
12868;BME280;33517;49.866;8.320;2023-04-21T08:14:14;100225.28;;;11.00;89.57
12868;BME280;33517;49.866;8.320;2023-04-21T08:17:07;100216.59;;;12.13;87.45
12868;BME280;33517;49.866;8.320;2023-04-21T08:19:59;100225.00;;;13.25;84.71
12868;BME280;33517;49.866;8.320;2023-04-21T08:22:51;100223.31;;;14.02;80.73
12868;BME280;33517;49.866;8.320;2023-04-21T08:25:43;100216.91;;;14.17;79.58
12868;BME280;33517;49.866;8.320;2023-04-21T08:28:35;100215.06;;;15.33;77.72
12868;BME280;33517;49.866;8.320;2023-04-21T08:31:27;100210.22;;;14.90;76.76
12868;BME280;33517;49.866;8.320;2023-04-21T08:34:21;100224.69;;;14.53;78.02
12868;BME280;33517;49.866;8.320;2023-04-21T08:37:13;100227.38;;;14.94;75.81
12868;BME280;33517;49.866;8.320;2023-04-21T08:40:06;100221.69;;;15.70;74.66
12868;BME280;33517;49.866;8.320;2023-04-21T08:42:58;100224.56;;;17.04;71.50
12868;BME280;33517;49.866;8.320;2023-04-21T08:45:50;100219.19;;;18.72;68.07
12868;BME280;33517;49.866;8.320;2023-04-21T08:48:45;100206.16;;;19.48;62.16
12868;BME280;33517;49.866;8.320;2023-04-21T08:51:39;100206.50;;;21.41;58.45
12868;BME280;33517;49.866;8.320;2023-04-21T08:54:31;100197.47;;;25.42;52.27
12868;BME280;33517;49.866;8.320;2023-04-21T08:57:23;100214.09;;;27.82;44.11
12868;BME280;33517;49.866;8.320;2023-04-21T09:00:15;100204.47;;;28.57;42.06
12868;BME280;33517;49.866;8.320;2023-04-21T09:03:07;100210.44;;;29.57;39.20
12868;BME280;33517;49.866;8.320;2023-04-21T09:06:01;100204.44;;;30.84;39.21
12868;BME280;33517;49.866;8.320;2023-04-21T09:08:56;100206.78;;;31.62;36.52
12868;BME280;33517;49.866;8.320;2023-04-21T09:11:53;100195.97;;;32.45;35.05
12868;BME280;33517;49.866;8.320;2023-04-21T09:14:46;100189.88;;;33.13;34.25
12868;BME280;33517;49.866;8.320;2023-04-21T09:17:38;100203.28;;;32.06;31.33
12868;BME280;33517;49.866;8.320;2023-04-21T09:20:30;100199.91;;;32.09;32.69
12868;BME280;33517;49.866;8.320;2023-04-21T09:23:22;100192.72;;;32.13;32.83
12868;BME280;33517;49.866;8.320;2023-04-21T09:26:17;100179.00;;;33.22;32.36
12868;BME280;33517;49.866;8.320;2023-04-21T09:29:09;100179.75;;;33.91;31.79
12868;BME280;33517;49.866;8.320;2023-04-21T09:32:01;100174.56;;;35.32;30.31
12868;BME280;33517;49.866;8.320;2023-04-21T09:34:58;100172.03;;;34.56;30.35
12868;BME280;33517;49.866;8.320;2023-04-21T09:37:50;100164.50;;;33.98;30.28
12868;BME280;33517;49.866;8.320;2023-04-21T09:40:42;100168.41;;;32.47;31.40
12868;BME280;33517;49.866;8.320;2023-04-21T09:43:35;100163.50;;;31.96;30.86
12868;BME280;33517;49.866;8.320;2023-04-21T09:46:29;100160.53;;;33.10;30.16
12868;BME280;33517;49.866;8.320;2023-04-21T09:49:24;100157.75;;;34.04;30.34
12868;BME280;33517;49.866;8.320;2023-04-21T09:52:20;100149.00;;;34.57;29.43
12868;BME280;33517;49.866;8.320;2023-04-21T09:55:12;100148.00;;;33.69;28.05
12868;BME280;33517;49.866;8.320;2023-04-21T09:58:05;100147.69;;;34.25;28.27
12868;BME280;33517;49.866;8.320;2023-04-21T10:01:00;100142.81;;;33.93;29.14
12868;BME280;33517;49.866;8.320;2023-04-21T10:03:54;100143.44;;;33.90;27.82
12868;BME280;33517;49.866;8.320;2023-04-21T10:06:46;100139.44;;;32.68;28.78
12868;BME280;33517;49.866;8.320;2023-04-21T10:09:42;100131.91;;;32.74;28.17
12868;BME280;33517;49.866;8.320;2023-04-21T10:12:35;100140.81;;;33.05;27.86
12868;BME280;33517;49.866;8.320;2023-04-21T10:15:31;100142.41;;;32.10;28.49
12868;BME280;33517;49.866;8.320;2023-04-21T10:18:27;100138.94;;;32.66;28.11
12868;BME280;33517;49.866;8.320;2023-04-21T10:21:20;100135.16;;;33.61;27.64
12868;BME280;33517;49.866;8.320;2023-04-21T10:24:13;100132.28;;;32.98;27.96
12868;BME280;33517;49.866;8.320;2023-04-21T10:27:09;100132.31;;;33.15;28.31
12868;BME280;33517;49.866;8.320;2023-04-21T10:30:17;100129.84;;;31.92;29.08
12868;BME280;33517;49.866;8.320;2023-04-21T10:33:09;100105.94;;;32.20;28.64
12868;BME280;33517;49.866;8.320;2023-04-21T10:36:03;100119.97;;;29.35;31.12
12868;BME280;33517;49.866;8.320;2023-04-21T10:38:55;100125.97;;;27.04;33.93
12868;BME280;33517;49.866;8.320;2023-04-21T10:41:47;100130.31;;;27.72;33.47
12868;BME280;33517;49.866;8.320;2023-04-21T10:44:41;100115.06;;;29.69;31.78
12868;BME280;33517;49.866;8.320;2023-04-21T10:47:38;100118.47;;;30.20;30.95
12868;BME280;33517;49.866;8.320;2023-04-21T10:50:30;100113.34;;;30.59;30.26
12868;BME280;33517;49.866;8.320;2023-04-21T10:53:24;100097.13;;;31.17;30.62
12868;BME280;33517;49.866;8.320;2023-04-21T10:56:16;100097.66;;;31.94;29.24
12868;BME280;33517;49.866;8.320;2023-04-21T10:59:08;100102.19;;;31.77;29.53
12868;BME280;33517;49.866;8.320;2023-04-21T11:02:00;100092.25;;;32.50;28.40
12868;BME280;33517;49.866;8.320;2023-04-21T11:04:53;100085.38;;;32.53;28.33
12868;BME280;33517;49.866;8.320;2023-04-21T11:07:45;100089.81;;;31.70;28.90
12868;BME280;33517;49.866;8.320;2023-04-21T11:10:48;100093.44;;;31.88;28.71
12868;BME280;33517;49.866;8.320;2023-04-21T11:13:40;100083.63;;;29.36;31.48
12868;BME280;33517;49.866;8.320;2023-04-21T11:16:33;100085.44;;;26.99;33.09
12868;BME280;33517;49.866;8.320;2023-04-21T11:19:26;100073.47;;;26.07;34.71
12868;BME280;33517;49.866;8.320;2023-04-21T11:22:19;100073.22;;;27.50;33.96
12868;BME280;33517;49.866;8.320;2023-04-21T11:25:16;100077.00;;;29.42;31.97
12868;BME280;33517;49.866;8.320;2023-04-21T11:28:09;100063.38;;;30.06;30.29
12868;BME280;33517;49.866;8.320;2023-04-21T11:31:01;100056.13;;;30.02;31.45
12868;BME280;33517;49.866;8.320;2023-04-21T11:33:54;100042.41;;;29.52;31.71
12868;BME280;33517;49.866;8.320;2023-04-21T11:36:48;100046.09;;;28.73;32.21
12868;BME280;33517;49.866;8.320;2023-04-21T11:39:40;100044.16;;;29.30;31.66
12868;BME280;33517;49.866;8.320;2023-04-21T11:42:33;100033.91;;;29.40;31.19
12868;BME280;33517;49.866;8.320;2023-04-21T11:45:27;100038.44;;;30.04;30.59
12868;BME280;33517;49.866;8.320;2023-04-21T11:48:19;100040.22;;;30.49;30.21
12868;BME280;33517;49.866;8.320;2023-04-21T11:51:15;100039.34;;;29.86;30.72
12868;BME280;33517;49.866;8.320;2023-04-21T11:54:09;100040.06;;;31.26;30.48
12868;BME280;33517;49.866;8.320;2023-04-21T11:57:01;100039.84;;;31.58;29.41
12868;BME280;33517;49.866;8.320;2023-04-21T11:59:53;100033.41;;;30.38;29.39
12868;BME280;33517;49.866;8.320;2023-04-21T12:02:53;100030.22;;;29.50;31.63
12868;BME280;33517;49.866;8.320;2023-04-21T12:05:45;100023.28;;;29.89;30.83
12868;BME280;33517;49.866;8.320;2023-04-21T12:08:39;100028.34;;;27.15;33.19
12868;BME280;33517;49.866;8.320;2023-04-21T12:11:31;100026.25;;;26.10;35.10
12868;BME280;33517;49.866;8.320;2023-04-21T12:14:24;100013.97;;;25.53;36.42
12868;BME280;33517;49.866;8.320;2023-04-21T12:17:17;100012.59;;;25.71;36.29
12868;BME280;33517;49.866;8.320;2023-04-21T12:20:14;100015.38;;;27.12;35.18
12868;BME280;33517;49.866;8.320;2023-04-21T12:23:06;100013.94;;;27.82;33.45
12868;BME280;33517;49.866;8.320;2023-04-21T12:25:58;100012.56;;;28.27;33.34
12868;BME280;33517;49.866;8.320;2023-04-21T12:28:51;100018.41;;;27.92;33.29
12868;BME280;33517;49.866;8.320;2023-04-21T12:31:44;100011.41;;;28.33;33.03
12868;BME280;33517;49.866;8.320;2023-04-21T12:34:35;100013.34;;;27.85;33.29
12868;BME280;33517;49.866;8.320;2023-04-21T12:37:29;100014.72;;;28.49;32.96
12868;BME280;33517;49.866;8.320;2023-04-21T12:40:21;100002.72;;;27.94;32.90
12868;BME280;33517;49.866;8.320;2023-04-21T12:43:12;100006.97;;;26.36;35.26
12868;BME280;33517;49.866;8.320;2023-04-21T12:46:04;100005.38;;;27.13;34.64
12868;BME280;33517;49.866;8.320;2023-04-21T12:48:56;99996.13;;;25.73;35.89
12868;BME280;33517;49.866;8.320;2023-04-21T12:51:48;99990.47;;;24.43;37.88
12868;BME280;33517;49.866;8.320;2023-04-21T12:54:42;99993.69;;;24.40;38.74
12868;BME280;33517;49.866;8.320;2023-04-21T12:57:34;99987.50;;;23.73;39.57
12868;BME280;33517;49.866;8.320;2023-04-21T13:00:26;99989.34;;;24.24;39.73
12868;BME280;33517;49.866;8.320;2023-04-21T13:03:18;99986.84;;;23.19;41.06
12868;BME280;33517;49.866;8.320;2023-04-21T13:06:10;99993.94;;;24.34;38.94
12868;BME280;33517;49.866;8.320;2023-04-21T13:09:02;99991.28;;;24.54;38.14
12868;BME280;33517;49.866;8.320;2023-04-21T13:11:56;99985.25;;;24.07;38.48
12868;BME280;33517;49.866;8.320;2023-04-21T13:14:48;99983.56;;;22.54;40.88
12868;BME280;33517;49.866;8.320;2023-04-21T13:17:41;99977.69;;;21.32;43.60
12868;BME280;33517;49.866;8.320;2023-04-21T13:20:32;99969.44;;;20.39;46.22
12868;BME280;33517;49.866;8.320;2023-04-21T13:23:24;99966.03;;;20.04;46.87
12868;BME280;33517;49.866;8.320;2023-04-21T13:26:17;99967.97;;;19.80;48.93
12868;BME280;33517;49.866;8.320;2023-04-21T13:29:10;99946.88;;;19.79;48.90
12868;BME280;33517;49.866;8.320;2023-04-21T13:32:02;99950.31;;;19.79;49.80
12868;BME280;33517;49.866;8.320;2023-04-21T13:34:54;99952.09;;;19.62;49.91
12868;BME280;33517;49.866;8.320;2023-04-21T13:37:47;99947.69;;;19.56;50.53
12868;BME280;33517;49.866;8.320;2023-04-21T13:40:39;99935.66;;;19.54;50.53
12868;BME280;33517;49.866;8.320;2023-04-21T13:43:32;99946.94;;;19.33;50.75
12868;BME280;33517;49.866;8.320;2023-04-21T13:46:25;99939.34;;;19.41;51.21
12868;BME280;33517;49.866;8.320;2023-04-21T13:49:17;99941.31;;;19.22;52.29
12868;BME280;33517;49.866;8.320;2023-04-21T13:52:09;99939.84;;;19.38;52.73
12868;BME280;33517;49.866;8.320;2023-04-21T13:55:02;99927.88;;;19.29;51.71
12868;BME280;33517;49.866;8.320;2023-04-21T13:57:54;99924.63;;;19.15;51.82
12868;BME280;33517;49.866;8.320;2023-04-21T14:00:46;99914.41;;;19.12;51.88
12868;BME280;33517;49.866;8.320;2023-04-21T14:03:39;99919.75;;;19.12;52.08
12868;BME280;33517;49.866;8.320;2023-04-21T14:06:31;99912.56;;;19.24;51.38
12868;BME280;33517;49.866;8.320;2023-04-21T14:09:24;99909.88;;;19.24;52.08
12868;BME280;33517;49.866;8.320;2023-04-21T14:12:16;99901.88;;;19.24;52.11
12868;BME280;33517;49.866;8.320;2023-04-21T14:15:09;99901.78;;;19.19;51.75
12868;BME280;33517;49.866;8.320;2023-04-21T14:18:00;99905.03;;;18.98;53.19
12868;BME280;33517;49.866;8.320;2023-04-21T14:20:54;99898.38;;;18.78;54.05
12868;BME280;33517;49.866;8.320;2023-04-21T14:23:46;99893.78;;;18.85;53.57
12868;BME280;33517;49.866;8.320;2023-04-21T14:26:38;99875.69;;;18.87;53.86
12868;BME280;33517;49.866;8.320;2023-04-21T14:29:29;99879.06;;;18.94;53.10
12868;BME280;33517;49.866;8.320;2023-04-21T14:32:21;99866.53;;;18.94;53.22
12868;BME280;33517;49.866;8.320;2023-04-21T14:35:13;99858.97;;;18.80;53.07
12868;BME280;33517;49.866;8.320;2023-04-21T14:38:07;99863.28;;;18.69;53.43
12868;BME280;33517;49.866;8.320;2023-04-21T14:40:58;99863.53;;;18.79;53.54
12868;BME280;33517;49.866;8.320;2023-04-21T14:43:51;99858.78;;;18.70;51.84
12868;BME280;33517;49.866;8.320;2023-04-21T14:46:46;99861.53;;;18.63;52.05
12868;BME280;33517;49.866;8.320;2023-04-21T14:49:38;99846.09;;;18.54;53.04
12868;BME280;33517;49.866;8.320;2023-04-21T14:52:30;99844.03;;;18.56;52.95
12868;BME280;33517;49.866;8.320;2023-04-21T14:55:23;99839.03;;;18.59;53.31
12868;BME280;33517;49.866;8.320;2023-04-21T14:58:15;99841.47;;;18.61;53.96
12868;BME280;33517;49.866;8.320;2023-04-21T15:01:07;99832.56;;;18.78;54.37
12868;BME280;33517;49.866;8.320;2023-04-21T15:04:00;99829.91;;;18.78;53.67
12868;BME280;33517;49.866;8.320;2023-04-21T15:06:51;99826.41;;;18.66;53.89
12868;BME280;33517;49.866;8.320;2023-04-21T15:09:43;99816.22;;;18.63;54.42
12868;BME280;33517;49.866;8.320;2023-04-21T15:12:38;99811.91;;;18.74;54.14